Bartlett, Kansas
Current Conditions -  °F | °C
As of 5:52 PM on Wednesday 22 Oct 2014 (Local Time) from KCFV Reporting Station
Clear Clear  
Wind Chill: 74°   Ceiling: Unl
Heat Index: 74°   Visibility: 10mi
Dew Point: 57°   Wind: 8mph
Humidity: 55%   Direction: 180°S
Pressure: 30.08"   Gusts: NA
Location:  37.05°N, 95.21°W
Report Text: KCFV 222252Z AUTO 18007KT 10SM CLR 23/14 A3008 RMK AO2 SLP181 T02330139
Loading
Personal Weather Stations






























Interactive Weather Map
Tropical Storm Tracking
New forecast layout! Learn more

10-Day Weather Forecast

Advertisements
Track Severe Weather on mobile